Time;durP1;ratioP1;P1;durP2;ratioP2;P2;SDS_P1;SDS_P2;PMS_P1;PMS_P2;Temp;Humidity;BMP_temperature;BMP_pressure;BME280_temperature;BME280_humidity;BME280_pressure;Samples;Min_cycle;Max_cycle;Signal;HPM_P1;HPM_P2
2022/10/02 00:02:29;;;;;;;5.50;2.60;;;15.60;83.90;;;;;;4995973;28;20201;-81
2022/10/02 00:05:00;;;;;;;3.73;2.70;;;15.60;84.00;;;;;;4980082;28;20541;-80
2022/10/02 00:07:40;;;;;;;5.03;2.77;;;15.60;84.10;;;;;;4994077;28;20636;-80
2022/10/02 00:10:17;;;;;;;2.90;2.37;;;15.50;84.10;;;;;;4994935;28;20215;-81
2022/10/02 00:12:51;;;;;;;3.83;2.87;;;15.50;84.10;;;;;;4995841;28;20659;-80
2022/10/02 00:15:26;;;;;;;5.43;2.70;;;15.50;84.10;;;;;;4979586;28;20279;-80
2022/10/02 00:18:01;;;;;;;5.53;2.67;;;15.50;84.20;;;;;;4996003;28;20243;-80
2022/10/02 00:20:54;;;;;;;4.70;3.30;;;15.50;84.20;;;;;;4995912;28;20219;-80
2022/10/02 00:23:44;;;;;;;4.30;2.97;;;15.50;84.30;;;;;;5003963;28;20208;-80
2022/10/02 00:26:39;;;;;;;3.47;2.50;;;15.40;84.30;;;;;;4992298;28;20214;-81
2022/10/02 00:29:24;;;;;;;4.30;2.30;;;15.50;84.30;;;;;;4995424;28;20212;-80
2022/10/02 00:32:03;;;;;;;3.23;2.77;;;15.40;84.10;;;;;;4992852;28;20233;-80
2022/10/02 00:34:55;;;;;;;4.83;2.57;;;15.50;84.20;;;;;;4984805;28;20204;-80
2022/10/02 00:37:41;;;;;;;2.50;2.23;;;15.50;84.90;;;;;;4978037;28;20524;-80
2022/10/02 00:40:33;;;;;;;3.90;2.47;;;15.50;84.10;;;;;;5000449;28;20637;-80
2022/10/02 00:43:21;;;;;;;2.47;2.27;;;15.50;84.00;;;;;;4994611;28;20565;-80
2022/10/02 00:46:22;;;;;;;3.57;2.37;;;15.40;84.60;;;;;;4995833;28;20223;-80
2022/10/02 00:48:54;;;;;;;4.93;2.30;;;15.40;83.90;;;;;;4997908;28;20204;-81
2022/10/02 00:51:44;;;;;;;3.47;2.70;;;15.40;83.90;;;;;;4989202;28;20211;-80
2022/10/02 00:54:23;;;;;;;6.77;2.70;;;15.40;83.80;;;;;;4997129;28;20223;-80
2022/10/02 00:56:58;;;;;;;4.97;2.30;;;15.40;83.90;;;;;;4995604;28;20205;-80
2022/10/02 00:59:52;;;;;;;4.50;2.67;;;15.40;83.80;;;;;;4996125;28;20250;-80
2022/10/02 01:02:25;;;;;;;4.83;2.30;;;15.30;83.40;;;;;;4981586;28;20556;-80
2022/10/02 01:05:07;;;;;;;4.70;2.43;;;15.30;83.10;;;;;;4975953;28;20199;-80
2022/10/02 01:07:40;;;;;;;3.37;2.43;;;15.20;82.90;;;;;;4995253;28;20609;-80
2022/10/02 01:10:10;;;;;;;6.20;3.03;;;15.20;82.90;;;;;;4995426;28;20211;-80
2022/10/02 01:12:38;;;;;;;3.10;2.70;;;15.20;82.80;;;;;;4996402;28;20270;-81
2022/10/02 01:15:19;;;;;;;4.83;2.87;;;15.20;82.80;;;;;;4979208;28;20235;-80
2022/10/02 01:17:50;;;;;;;5.90;2.97;;;15.20;82.70;;;;;;4995210;28;20626;-80
2022/10/02 01:20:40;;;;;;;13.97;2.90;;;15.20;82.60;;;;;;4995182;28;20226;-81
2022/10/02 01:23:21;;;;;;;9.13;3.20;;;15.10;82.70;;;;;;4991866;28;20212;-80
2022/10/02 01:25:48;;;;;;;3.57;3.17;;;15.00;82.90;;;;;;4995146;28;20219;-80
2022/10/02 01:28:17;;;;;;;6.73;3.23;;;15.00;83.30;;;;;;4995963;28;20285;-80
2022/10/02 01:30:48;;;;;;;6.30;3.23;;;15.00;83.70;;;;;;4984251;28;20231;-81
2022/10/02 01:33:16;;;;;;;5.70;3.10;;;14.90;83.80;;;;;;4994553;28;20562;-80
2022/10/02 01:35:44;;;;;;;3.47;2.97;;;15.00;84.20;;;;;;4978777;28;20235;-81
2022/10/02 01:38:15;;;;;;;5.40;4.13;;;14.90;84.40;;;;;;4995022;28;20209;-81
2022/10/02 01:40:43;;;;;;;4.20;3.17;;;14.90;84.80;;;;;;4995847;28;20200;-80
2022/10/02 01:43:25;;;;;;;8.00;3.43;;;14.90;84.90;;;;;;4998957;28;20235;-79
2022/10/02 01:46:11;;;;;;;6.77;3.40;;;14.90;85.00;;;;;;4993511;28;20278;-80
2022/10/02 01:48:46;;;;;;;5.13;3.60;;;14.90;84.70;;;;;;4973335;28;20305;-80
2022/10/02 01:51:54;;;;;;;3.93;3.30;;;14.90;84.50;;;;;;4995617;28;20310;-80
2022/10/02 01:54:37;;;;;;;4.23;3.10;;;14.80;84.70;;;;;;4997989;28;20546;-80
2022/10/02 01:57:38;;;;;;;4.93;3.40;;;14.80;84.80;;;;;;4981716;28;20228;-80
2022/10/02 02:00:27;;;;;;;11.03;2.93;;;14.80;84.90;;;;;;4998368;28;20207;-80
2022/10/02 02:03:14;;;;;;;7.67;3.10;;;14.80;85.00;;;;;;4985199;28;20201;-80
2022/10/02 02:05:59;;;;;;;3.87;3.53;;;14.80;84.90;;;;;;4992278;28;20216;-80
2022/10/02 02:08:38;;;;;;;5.10;3.10;;;14.70;85.00;;;;;;4981663;28;20204;-81
2022/10/02 02:11:13;;;;;;;3.73;3.13;;;14.70;85.20;;;;;;4998490;28;20706;-80
2022/10/02 02:13:53;;;;;;;7.10;3.67;;;14.70;85.30;;;;;;4999309;28;20215;-80
2022/10/02 02:16:43;;;;;;;5.43;2.73;;;14.70;85.40;;;;;;4995241;28;20590;-80
2022/10/02 02:19:36;;;;;;;7.43;2.87;;;14.70;85.50;;;;;;4983038;28;20230;-80
2022/10/02 02:22:14;;;;;;;4.47;3.17;;;14.70;85.60;;;;;;4993603;28;20704;-80
2022/10/02 02:24:57;;;;;;;7.23;2.80;;;14.70;85.50;;;;;;4992209;28;20208;-80
2022/10/02 02:27:30;;;;;;;4.13;2.60;;;14.70;85.50;;;;;;4998103;28;20210;-80
2022/10/02 02:30:04;;;;;;;6.27;3.47;;;14.70;85.50;;;;;;4978533;28;20641;-79
2022/10/02 02:32:36;;;;;;;6.70;3.13;;;14.70;85.50;;;;;;4992530;28;20286;-80
2022/10/02 02:35:10;;;;;;;8.90;2.97;;;14.70;85.40;;;;;;4997333;28;20208;-79
2022/10/02 02:37:40;;;;;;;5.07;2.63;;;14.70;85.20;;;;;;4996470;28;20207;-80
2022/10/02 02:40:19;;;;;;;4.17;2.57;;;14.70;85.10;;;;;;4999012;28;20203;-80
2022/10/02 02:42:57;;;;;;;5.10;2.90;;;14.70;85.10;;;;;;4997868;28;20204;-80
2022/10/02 02:45:31;;;;;;;4.40;2.80;;;14.70;84.90;;;;;;4981708;28;20215;-80
2022/10/02 02:48:08;;;;;;;4.70;2.70;;;14.70;84.90;;;;;;4998090;28;20219;-79
2022/10/02 02:50:44;;;;;;;5.83;2.63;;;14.70;84.80;;;;;;4985765;28;20305;-80
2022/10/02 02:53:19;;;;;;;6.57;2.60;;;14.80;84.70;;;;;;4990009;28;20792;-80
2022/10/02 02:55:58;;;;;;;5.63;2.70;;;14.80;84.60;;;;;;4978050;28;20285;-80
2022/10/02 02:58:56;;;;;;;5.40;2.80;;;14.90;84.50;;;;;;4996909;28;20200;-80
2022/10/02 03:01:24;;;;;;;5.07;2.63;;;14.90;84.20;;;;;;4988011;28;20616;-80
2022/10/02 03:03:52;;;;;;;4.07;2.67;;;14.90;83.90;;;;;;4993144;28;20208;-80
2022/10/02 03:06:26;;;;;;;5.93;2.83;;;14.90;83.80;;;;;;4996918;28;20196;-81
2022/10/02 03:08:54;;;;;;;3.63;2.53;;;14.90;83.70;;;;;;4977374;28;20568;-80
2022/10/02 03:11:24;;;;;;;9.80;3.00;;;14.90;83.70;;;;;;4997180;28;20276;-80
2022/10/02 03:14:19;;;;;;;5.53;2.90;;;14.90;83.80;;;;;;4978149;28;20219;-80
2022/10/02 03:17:27;;;;;;;6.20;2.70;;;14.90;84.10;;;;;;4990798;28;20224;-80
2022/10/02 03:20:30;;;;;;;7.47;2.50;;;14.90;84.30;;;;;;5008639;28;20205;-80
2022/10/02 03:23:26;;;;;;;4.33;2.40;;;14.90;84.60;;;;;;4995990;28;20667;-80
2022/10/02 03:26:09;;;;;;;7.27;2.90;;;14.80;84.60;;;;;;4992487;28;20206;-79
2022/10/02 03:28:38;;;;;;;3.60;3.17;;;14.80;84.60;;;;;;4999084;28;20222;-80
2022/10/02 03:31:26;;;;;;;3.57;3.07;;;14.80;84.70;;;;;;4989011;28;20227;-80
2022/10/02 03:33:56;;;;;;;5.00;2.97;;;14.80;84.70;;;;;;5009985;28;20212;-80
2022/10/02 03:36:24;;;;;;;2.77;2.57;;;14.80;84.60;;;;;;4960420;28;20618;-81
2022/10/02 03:38:55;;;;;;;3.80;2.60;;;14.80;84.60;;;;;;4990434;28;20233;-79
2022/10/02 03:41:44;;;;;;;3.97;3.23;;;14.80;84.50;;;;;;4983608;28;20207;-80
2022/10/02 03:44:11;;;;;;;5.57;3.07;;;14.70;84.50;;;;;;4995323;28;20262;-80
2022/10/02 03:46:38;;;;;;;3.23;2.93;;;14.70;84.50;;;;;;4995248;28;20207;-80
2022/10/02 03:49:06;;;;;;;5.83;3.00;;;14.60;84.50;;;;;;4981003;28;20212;-80
2022/10/02 03:51:33;;;;;;;4.07;2.80;;;14.70;84.60;;;;;;4994460;28;20737;-79
2022/10/02 03:54:01;;;;;;;3.60;2.93;;;14.60;84.60;;;;;;4997092;28;20206;-79
2022/10/02 03:56:53;;;;;;;6.93;3.10;;;14.60;84.50;;;;;;4986711;28;20244;-80
2022/10/02 03:59:42;;;;;;;4.07;3.17;;;14.60;84.60;;;;;;4985006;28;20208;-80
2022/10/02 04:02:28;;;;;;;3.30;2.70;;;14.60;84.70;;;;;;4996922;28;20208;-80
2022/10/02 04:05:04;;;;;;;5.23;3.40;;;14.60;84.80;;;;;;4994510;28;20219;-80
2022/10/02 04:07:38;;;;;;;5.90;3.33;;;14.60;84.80;;;;;;4995097;28;20697;-80
2022/10/02 04:10:38;;;;;;;4.37;2.73;;;14.60;84.80;;;;;;4993359;28;20209;-80
2022/10/02 04:13:17;;;;;;;5.13;3.17;;;14.60;84.80;;;;;;4985814;28;20632;-80
2022/10/02 04:15:53;;;;;;;6.97;2.80;;;14.60;84.70;;;;;;4993150;28;20231;-80
2022/10/02 04:18:46;;;;;;;8.20;2.90;;;14.70;84.70;;;;;;4989563;28;20258;-80
2022/10/02 04:21:44;;;;;;;4.77;2.73;;;14.70;84.60;;;;;;4990830;28;20207;-80
2022/10/02 04:24:27;;;;;;;4.73;2.87;;;14.70;84.60;;;;;;4984063;28;20539;-80
2022/10/02 04:27:09;;;;;;;3.67;2.90;;;14.70;84.60;;;;;;4997008;28;20294;-81
2022/10/02 04:29:42;;;;;;;4.93;2.67;;;14.70;84.70;;;;;;4997342;28;20206;-80
2022/10/02 04:32:36;;;;;;;4.70;2.83;;;14.80;84.70;;;;;;4989068;28;20214;-80
2022/10/02 04:35:31;;;;;;;8.67;3.13;;;14.80;84.60;;;;;;4976838;28;20675;-81
2022/10/02 04:38:13;;;;;;;8.23;3.63;;;14.90;84.40;;;;;;4991666;28;20229;-80
2022/10/02 04:41:17;;;;;;;3.23;3.00;;;14.90;83.80;;;;;;4989374;28;20207;-80
2022/10/02 04:44:02;;;;;;;4.70;2.90;;;14.90;83.80;;;;;;4991193;28;20203;-81
2022/10/02 04:46:51;;;;;;;4.57;3.00;;;14.90;83.90;;;;;;4996815;28;20215;-81
2022/10/02 04:49:38;;;;;;;7.60;3.27;;;14.90;84.00;;;;;;4994463;28;20298;-81
2022/10/02 04:52:41;;;;;;;3.67;3.30;;;14.90;83.90;;;;;;4982202;28;20240;-80
2022/10/02 04:55:17;;;;;;;4.97;3.13;;;14.90;83.80;;;;;;4995321;28;20202;-80
2022/10/02 04:57:59;;;;;;;4.60;3.80;;;14.80;83.70;;;;;;4990916;28;20219;-81
2022/10/02 05:00:35;;;;;;;4.40;3.20;;;14.80;84.00;;;;;;4980790;28;20286;-80
2022/10/02 05:03:08;;;;;;;3.97;3.00;;;14.80;84.00;;;;;;4992337;28;20214;-80
2022/10/02 05:06:13;;;;;;;8.97;3.40;;;14.80;83.90;;;;;;4984701;28;20675;-80
2022/10/02 05:09:05;;;;;;;6.60;3.30;;;14.80;84.00;;;;;;4986685;28;20199;-80
2022/10/02 05:11:42;;;;;;;4.87;2.90;;;14.80;84.10;;;;;;4982617;28;20263;-80
2022/10/02 05:14:40;;;;;;;5.23;3.47;;;14.80;84.20;;;;;;4994961;28;20223;-80
2022/10/02 05:17:26;;;;;;;5.13;3.20;;;14.80;84.20;;;;;;4990516;28;20310;-81
2022/10/02 05:20:30;;;;;;;7.17;2.97;;;14.80;84.10;;;;;;4979955;28;20211;-80
2022/10/02 05:23:19;;;;;;;6.43;3.10;;;14.80;84.10;;;;;;4994134;28;20637;-80
2022/10/02 05:26:04;;;;;;;5.63;2.50;;;14.80;84.20;;;;;;4994740;28;20224;-80
2022/10/02 05:29:02;;;;;;;3.47;3.03;;;14.80;84.20;;;;;;4995931;28;20200;-81
2022/10/02 05:32:14;;;;;;;5.47;2.90;;;14.80;84.10;;;;;;4991152;28;20215;-80
2022/10/02 05:35:08;;;;;;;3.40;2.90;;;14.80;83.80;;;;;;4998305;28;20212;-80
2022/10/02 05:37:48;;;;;;;3.93;3.27;;;14.80;83.80;;;;;;4988940;28;20235;-80
2022/10/02 05:40:53;;;;;;;6.03;2.63;;;14.80;83.90;;;;;;4997438;28;20222;-80
2022/10/02 05:43:38;;;;;;;4.33;3.00;;;14.80;84.00;;;;;;4997887;28;20215;-80
2022/10/02 05:46:24;;;;;;;7.93;3.20;;;14.80;84.10;;;;;;4994086;28;20228;-80
2022/10/02 05:49:07;;;;;;;4.93;2.70;;;14.80;84.00;;;;;;4999695;28;20193;-80
2022/10/02 05:51:56;;;;;;;3.87;2.30;;;14.80;84.00;;;;;;4989286;28;20581;-80
2022/10/02 05:54:35;;;;;;;6.20;2.87;;;14.80;84.20;;;;;;4990970;28;20207;-81
2022/10/02 05:57:23;;;;;;;6.27;3.23;;;14.80;84.40;;;;;;4991350;28;20629;-80
2022/10/02 06:00:23;;;;;;;3.17;2.40;;;14.90;84.30;;;;;;4987846;28;20619;-80
2022/10/02 06:03:16;;;;;;;7.00;2.87;;;14.90;84.40;;;;;;4982788;28;20476;-80
2022/10/02 06:06:01;;;;;;;2.87;2.20;;;14.90;84.40;;;;;;4995674;28;20291;-80
2022/10/02 06:08:52;;;;;;;9.13;2.80;;;15.00;84.50;;;;;;4990664;28;20216;-80
2022/10/02 06:11:25;;;;;;;4.50;2.40;;;15.10;84.50;;;;;;4981763;28;20210;-80
2022/10/02 06:14:35;;;;;;;2.40;1.87;;;15.20;84.30;;;;;;4970572;28;20211;-81
2022/10/02 06:17:21;;;;;;;2.40;2.13;;;15.40;84.10;;;;;;4989494;28;20215;-81
2022/10/02 06:20:02;;;;;;;3.43;2.10;;;15.50;83.60;;;;;;4969977;28;20249;-81
2022/10/02 06:23:19;;;;;;;4.00;2.23;;;15.50;83.30;;;;;;4994396;28;20304;-81
2022/10/02 06:26:08;;;;;;;6.47;2.67;;;15.60;83.20;;;;;;4996014;28;20274;-81
2022/10/02 06:28:55;;;;;;;8.30;2.33;;;15.70;83.20;;;;;;4979706;28;20248;-81
2022/10/02 06:31:58;;;;;;;5.90;2.50;;;15.80;83.10;;;;;;4987804;28;20231;-81
2022/10/02 06:34:27;;;;;;;4.83;2.33;;;16.00;83.00;;;;;;4986105;28;20216;-81
2022/10/02 06:37:19;;;;;;;2.27;2.00;;;16.10;82.60;;;;;;4996776;28;20536;-81
2022/10/02 06:40:14;;;;;;;3.07;2.13;;;16.20;82.20;;;;;;4963020;28;20656;-81
2022/10/02 06:43:17;;;;;;;3.47;1.87;;;16.20;82.00;;;;;;4997222;28;20644;-82
2022/10/02 06:46:03;;;;;;;4.13;1.90;;;16.30;82.10;;;;;;4996813;28;20271;-81
2022/10/02 06:48:45;;;;;;;5.20;2.30;;;16.40;82.00;;;;;;4997439;28;20204;-82
2022/10/02 06:51:41;;;;;;;3.07;2.23;;;16.50;82.00;;;;;;4997946;28;20646;-82
2022/10/02 06:54:19;;;;;;;6.17;1.90;;;16.60;82.10;;;;;;4977687;28;20221;-81
2022/10/02 06:57:04;;;;;;;4.03;2.30;;;16.70;82.10;;;;;;4996839;28;20275;-82
2022/10/02 07:00:00;;;;;;;4.40;2.10;;;16.80;82.10;;;;;;4993741;28;20296;-81
2022/10/02 07:02:48;;;;;;;5.27;1.90;;;16.90;82.20;;;;;;4992965;28;20243;-81
2022/10/02 07:05:43;;;;;;;2.80;1.77;;;17.10;82.20;;;;;;4993953;28;20218;-81
2022/10/02 07:08:15;;;;;;;7.93;2.20;;;17.30;81.80;;;;;;4996446;28;20299;-81
2022/10/02 07:11:08;;;;;;;3.63;2.00;;;17.40;81.50;;;;;;4996654;28;20603;-82
2022/10/02 07:14:05;;;;;;;4.03;1.80;;;17.60;80.90;;;;;;4984888;28;20213;-81
2022/10/02 07:16:56;;;;;;;4.57;1.60;;;17.80;80.60;;;;;;5011434;28;20601;-81
2022/10/02 07:19:48;;;;;;;3.60;1.83;;;18.00;79.90;;;;;;4997082;28;20242;-81
2022/10/02 07:22:43;;;;;;;5.03;1.67;;;18.20;79.60;;;;;;4982238;28;20232;-81
2022/10/02 07:25:30;;;;;;;4.40;1.37;;;18.30;79.10;;;;;;4998550;28;20203;-81
2022/10/02 07:28:26;;;;;;;6.40;1.60;;;18.40;79.30;;;;;;4996424;28;20324;-81
2022/10/02 07:31:35;;;;;;;4.37;1.70;;;18.40;79.30;;;;;;4994176;28;20214;-80
2022/10/02 07:34:42;;;;;;;5.10;1.97;;;18.40;79.40;;;;;;4986722;28;20217;-82
2022/10/02 07:37:26;;;;;;;2.40;1.80;;;18.40;79.30;;;;;;4995916;28;20237;-82
2022/10/02 07:40:09;;;;;;;4.07;2.03;;;18.40;78.10;;;;;;4979382;28;20299;-80
2022/10/02 07:42:59;;;;;;;5.40;2.00;;;18.40;78.30;;;;;;4995898;28;20264;-81
2022/10/02 07:45:28;;;;;;;3.43;1.70;;;18.40;78.70;;;;;;4960633;28;20222;-81
2022/10/02 07:48:07;;;;;;;3.87;1.70;;;18.40;79.00;;;;;;4987921;28;20247;-81
2022/10/02 07:50:40;;;;;;;4.43;1.97;;;18.40;79.20;;;;;;4979700;28;20214;-82
2022/10/02 07:53:27;;;;;;;3.27;1.90;;;18.40;79.00;;;;;;4996957;28;20226;-82
2022/10/02 07:55:55;;;;;;;5.43;2.00;;;18.40;78.80;;;;;;4995969;28;20233;-81
2022/10/02 07:58:48;;;;;;;4.27;1.83;;;18.40;78.90;;;;;;4995446;28;20225;-81
2022/10/02 08:01:20;;;;;;;7.90;1.93;;;18.50;79.30;;;;;;5006778;28;20221;-82
2022/10/02 08:04:03;;;;;;;5.03;2.03;;;18.50;79.40;;;;;;4996725;28;20513;-82
2022/10/02 08:06:32;;;;;;;3.93;1.87;;;18.60;78.90;;;;;;4980366;28;20229;-82
2022/10/02 08:09:16;;;;;;;6.83;2.17;;;18.60;78.90;;;;;;4997208;28;20210;-82
2022/10/02 08:12:02;;;;;;;4.93;1.97;;;18.70;78.60;;;;;;4993356;28;20205;-81
2022/10/02 08:14:39;;;;;;;3.93;1.83;;;18.90;78.40;;;;;;4987226;28;20202;-81
2022/10/02 08:17:36;;;;;;;7.40;2.63;;;19.00;77.40;;;;;;4978194;28;20651;-81
2022/10/02 08:20:29;;;;;;;3.90;1.93;;;19.20;76.90;;;;;;4976764;28;20250;-82
2022/10/02 08:23:08;;;;;;;5.50;2.30;;;19.40;76.40;;;;;;4979658;28;20322;-82
2022/10/02 08:25:48;;;;;;;3.63;2.07;;;19.60;75.80;;;;;;4988716;28;20252;-81
2022/10/02 08:28:40;;;;;;;5.50;2.50;;;19.80;73.60;;;;;;4988456;28;20256;-82
2022/10/02 08:31:13;;;;;;;5.40;2.47;;;19.90;73.30;;;;;;4985045;28;20233;-82
2022/10/02 08:33:44;;;;;;;5.40;2.77;;;20.00;73.30;;;;;;4996289;28;20194;-81
2022/10/02 08:36:17;;;;;;;6.87;2.00;;;20.30;73.70;;;;;;4996574;28;20253;-81
2022/10/02 08:38:52;;;;;;;6.53;2.37;;;20.50;73.00;;;;;;4981617;28;20227;-81
2022/10/02 08:41:49;;;;;;;4.00;2.40;;;20.70;72.40;;;;;;4976522;28;20220;-82
2022/10/02 08:44:41;;;;;;;4.40;2.43;;;20.80;71.40;;;;;;4975675;28;20227;-81
2022/10/02 08:47:32;;;;;;;7.73;3.00;;;20.90;71.30;;;;;;4979940;28;20230;-80
2022/10/02 08:50:50;;;;;;;6.00;2.40;;;21.00;71.50;;;;;;4984555;28;20275;-82
2022/10/02 08:53:43;;;;;;;6.67;2.60;;;21.20;71.20;;;;;;4998087;28;20252;-82
2022/10/02 08:56:37;;;;;;;6.50;2.20;;;21.40;70.10;;;;;;4998251;28;20206;-80
2022/10/02 08:59:49;;;;;;;7.17;2.30;;;21.50;69.80;;;;;;4981600;28;20671;-81
2022/10/02 09:02:56;;;;;;;6.43;2.60;;;21.70;69.20;;;;;;4998268;28;20664;-81
2022/10/02 09:06:01;;;;;;;3.63;2.30;;;21.80;68.20;;;;;;4985363;28;20225;-82
2022/10/02 09:09:03;;;;;;;6.37;2.17;;;21.90;68.40;;;;;;4976085;28;20243;-81
2022/10/02 09:11:45;;;;;;;6.80;2.60;;;22.00;67.60;;;;;;4977556;28;20207;-83
2022/10/02 09:14:50;;;;;;;2.67;2.43;;;22.00;67.40;;;;;;4960421;28;20658;-83
2022/10/02 09:17:31;;;;;;;7.00;3.33;;;22.10;66.90;;;;;;4961201;28;20217;-82
2022/10/02 09:20:17;;;;;;;7.37;5.43;;;22.10;66.70;;;;;;4986832;28;20204;-80
2022/10/02 09:23:07;;;;;;;12.10;6.80;;;22.20;66.80;;;;;;4989679;28;20259;-81
2022/10/02 09:26:06;;;;;;;9.00;4.93;;;22.30;66.00;;;;;;4989696;28;20283;-81
2022/10/02 09:29:00;;;;;;;13.20;6.43;;;22.30;66.60;;;;;;4992818;28;20220;-81
2022/10/02 09:31:55;;;;;;;8.37;5.37;;;22.40;66.70;;;;;;4977704;28;20245;-82
2022/10/02 09:34:46;;;;;;;9.03;6.23;;;22.60;66.60;;;;;;4962414;28;20244;-81
2022/10/02 09:37:40;;;;;;;8.07;5.00;;;22.70;65.70;;;;;;4979863;28;20224;-81
2022/10/02 09:40:36;;;;;;;6.00;3.83;;;22.70;65.00;;;;;;4996227;28;20215;-81
2022/10/02 09:43:31;;;;;;;5.57;4.00;;;22.80;65.20;;;;;;4994150;28;20208;-80
2022/10/02 09:46:05;;;;;;;6.07;4.37;;;22.90;65.20;;;;;;4985834;28;20216;-80
2022/10/02 09:48:36;;;;;;;7.00;4.83;;;23.10;65.00;;;;;;4986650;28;20310;-81
2022/10/02 09:51:31;;;;;;;4.70;4.23;;;23.20;64.50;;;;;;4995389;28;20205;-81
2022/10/02 09:54:33;;;;;;;8.73;3.67;;;23.30;63.90;;;;;;4982889;28;20263;-81
2022/10/02 09:57:14;;;;;;;9.80;4.27;;;23.50;63.50;;;;;;4993642;28;20201;-80
2022/10/02 10:00:07;;;;;;;8.50;4.83;;;23.50;63.50;;;;;;4990614;28;20212;-81
2022/10/02 10:03:05;;;;;;;10.67;7.03;;;23.70;62.90;;;;;;4996094;28;20287;-81
2022/10/02 10:05:53;;;;;;;9.77;5.63;;;23.90;62.90;;;;;;4997151;28;20209;-82
2022/10/02 10:08:48;;;;;;;10.40;5.67;;;24.00;62.20;;;;;;4984503;28;20247;-81
2022/10/02 10:11:58;;;;;;;12.13;5.50;;;24.00;61.80;;;;;;4989187;28;20232;-80
2022/10/02 10:15:06;;;;;;;6.43;4.97;;;24.00;61.20;;;;;;4991994;28;21058;-84
2022/10/02 10:18:04;;;;;;;7.93;4.83;;;24.00;61.10;;;;;;4996768;28;20226;-83
2022/10/02 10:20:50;;;;;;;12.70;5.03;;;24.00;61.20;;;;;;4989067;28;20559;-82
2022/10/02 10:23:36;;;;;;;5.80;4.17;;;24.00;60.00;;;;;;4986209;28;20209;-84
2022/10/02 10:26:42;;;;;;;8.07;2.50;;;24.00;60.10;;;;;;4996368;28;20213;-85
2022/10/02 10:29:28;;;;;;;3.80;1.87;;;24.00;61.20;;;;;;4988505;28;20228;-84
2022/10/02 10:32:15;;;;;;;7.50;2.17;;;24.10;61.40;;;;;;4979081;28;20208;-84
2022/10/02 10:34:50;;;;;;;3.77;2.07;;;24.30;60.60;;;;;;4984929;28;20189;-84
2022/10/02 10:41:26;;;;;;;8.80;2.63;;;24.50;59.90;;;;;;4992319;28;20201;-85
2022/10/02 10:44:06;;;;;;;5.50;2.43;;;24.60;59.50;;;;;;4980471;28;20668;-84
2022/10/02 10:46:54;;;;;;;7.23;2.73;;;24.70;59.60;;;;;;4981893;28;20219;-84
2022/10/02 10:49:37;;;;;;;10.17;2.50;;;24.80;60.00;;;;;;4989508;28;20231;-85
2022/10/02 10:52:30;;;;;;;4.03;2.30;;;25.00;59.80;;;;;;4994352;28;20233;-83
2022/10/02 10:55:08;;;;;;;5.90;2.60;;;25.10;58.50;;;;;;4986279;28;20205;-84
2022/10/02 10:57:54;;;;;;;6.00;2.60;;;25.00;58.60;;;;;;4986361;28;20224;-84
2022/10/02 11:00:31;;;;;;;5.60;2.27;;;25.10;58.80;;;;;;4994182;28;20907;-85
2022/10/02 11:03:17;;;;;;;6.20;2.20;;;25.20;59.10;;;;;;4990762;28;20597;-83
2022/10/02 11:06:03;;;;;;;7.67;2.63;;;25.30;58.80;;;;;;4991641;28;20648;-84
2022/10/02 11:08:45;;;;;;;4.50;1.87;;;25.40;58.20;;;;;;4976866;28;20231;-83
2022/10/02 11:11:26;;;;;;;6.27;2.03;;;25.50;57.40;;;;;;4995268;28;20197;-80
2022/10/02 11:14:15;;;;;;;4.30;1.90;;;25.50;57.80;;;;;;4993201;28;20271;-81
2022/10/02 11:17:07;;;;;;;4.70;2.07;;;25.60;57.60;;;;;;4984088;28;20200;-78
2022/10/02 11:20:02;;;;;;;4.33;2.33;;;25.60;56.70;;;;;;4993814;28;20224;-80
2022/10/02 11:22:53;;;;;;;3.17;2.07;;;25.60;56.70;;;;;;4978166;28;20220;-80
2022/10/02 11:25:51;;;;;;;9.67;2.23;;;25.50;57.20;;;;;;4988790;28;20204;-80
2022/10/02 11:28:39;;;;;;;6.43;2.00;;;25.50;57.30;;;;;;4987707;28;20219;-79
2022/10/02 11:31:39;;;;;;;5.27;1.50;;;25.60;58.40;;;;;;4978247;28;20209;-80
2022/10/02 11:34:39;;;;;;;4.13;2.00;;;25.70;58.00;;;;;;4994470;28;20211;-80
2022/10/02 11:37:23;;;;;;;2.60;1.80;;;25.70;57.70;;;;;;4980996;28;20224;-80
2022/10/02 11:40:02;;;;;;;4.60;2.20;;;25.70;57.00;;;;;;4980562;28;20243;-80
2022/10/02 11:42:59;;;;;;;7.43;2.60;;;25.70;56.40;;;;;;4995334;28;20222;-80
2022/10/02 11:46:03;;;;;;;7.47;2.40;;;25.70;56.60;;;;;;5007579;28;20555;-80
2022/10/02 11:48:55;;;;;;;8.93;2.17;;;25.70;56.00;;;;;;5004371;28;20319;-80
2022/10/02 11:51:53;;;;;;;4.17;2.10;;;25.70;56.20;;;;;;4986992;28;20263;-81
2022/10/02 11:55:02;;;;;;;4.73;2.07;;;25.70;58.80;;;;;;4992390;28;20216;-80
2022/10/02 11:57:53;;;;;;;8.23;1.93;;;25.70;58.10;;;;;;4993475;28;20215;-79
2022/10/02 12:00:58;;;;;;;8.87;2.00;;;25.70;57.10;;;;;;4977456;28;20200;-80
2022/10/02 12:03:56;;;;;;;5.43;1.67;;;25.70;57.00;;;;;;4996677;28;20216;-80
2022/10/02 12:06:49;;;;;;;13.03;2.30;;;25.70;57.50;;;;;;4992098;28;20205;-81
2022/10/02 12:09:34;;;;;;;6.03;1.90;;;25.80;56.50;;;;;;4979142;28;20230;-79
2022/10/02 12:12:01;;;;;;;4.53;2.20;;;25.80;56.50;;;;;;4982170;28;20192;-81
2022/10/02 12:14:38;;;;;;;3.50;2.10;;;25.80;57.90;;;;;;4978972;28;20691;-80
2022/10/02 12:17:30;;;;;;;4.50;2.07;;;25.80;56.60;;;;;;4986947;28;20209;-79
2022/10/02 12:29:29;;;;;;;7.33;1.93;;;25.80;56.10;;;;;;4985397;28;20239;-80
2022/10/02 12:32:28;;;;;;;5.50;1.80;;;25.80;55.90;;;;;;4977842;28;20206;-81
2022/10/02 12:35:30;;;;;;;5.50;2.00;;;25.90;55.80;;;;;;4980859;28;20214;-80
2022/10/02 12:38:19;;;;;;;6.50;1.90;;;25.90;55.70;;;;;;4982202;28;20216;-81
2022/10/02 12:40:55;;;;;;;6.23;1.93;;;25.90;56.90;;;;;;4988939;28;20612;-80
2022/10/02 12:43:54;;;;;;;4.37;1.60;;;26.00;55.60;;;;;;4990288;28;20572;-80
2022/10/02 12:46:44;;;;;;;6.33;2.27;;;26.00;55.70;;;;;;4972496;28;20325;-79
2022/10/02 12:49:15;;;;;;;6.30;1.87;;;26.00;56.20;;;;;;4987912;28;20205;-80
2022/10/02 12:52:11;;;;;;;4.50;2.17;;;26.00;55.60;;;;;;4975925;28;20269;-79
2022/10/02 12:55:14;;;;;;;6.03;1.70;;;26.00;55.70;;;;;;4975828;28;20204;-80
2022/10/02 12:57:57;;;;;;;3.13;1.60;;;26.00;55.30;;;;;;4985982;28;20208;-79
2022/10/02 13:01:06;;;;;;;4.37;1.57;;;26.00;55.20;;;;;;4977970;28;20214;-79
2022/10/02 13:03:45;;;;;;;6.57;1.57;;;26.00;55.10;;;;;;4988741;28;20205;-80
2022/10/02 13:06:36;;;;;;;5.20;1.43;;;25.90;54.60;;;;;;4990933;28;20267;-79
2022/10/02 13:09:04;;;;;;;6.43;1.80;;;25.90;54.20;;;;;;4991940;28;20232;-80
2022/10/02 13:11:43;;;;;;;5.80;1.77;;;25.80;54.60;;;;;;4970834;28;20229;-80
2022/10/02 13:14:43;;;;;;;3.00;1.30;;;25.70;55.00;;;;;;4987187;28;20206;-80
2022/10/02 13:17:44;;;;;;;5.60;1.57;;;25.70;55.30;;;;;;4993395;28;20211;-79
2022/10/02 13:20:38;;;;;;;7.83;1.30;;;25.80;55.70;;;;;;4973553;28;20295;-80
2022/10/02 13:23:25;;;;;;;5.63;1.80;;;25.80;56.20;;;;;;4992227;28;20258;-79
2022/10/02 13:26:20;;;;;;;3.03;1.20;;;25.90;55.80;;;;;;4980792;28;20225;-79
2022/10/02 13:29:08;;;;;;;5.80;1.60;;;25.90;55.40;;;;;;4990447;28;20269;-79
2022/10/02 13:32:02;;;;;;;4.37;1.40;;;25.90;55.80;;;;;;4984287;28;20657;-79
2022/10/02 13:34:57;;;;;;;3.57;1.30;;;25.90;55.50;;;;;;4987249;28;20641;-79
2022/10/02 13:37:55;;;;;;;3.13;1.30;;;25.90;55.90;;;;;;4980330;28;20197;-79
2022/10/02 13:40:31;;;;;;;2.70;1.20;;;25.90;55.90;;;;;;4991040;28;20287;-79
2022/10/02 13:43:22;;;;;;;6.07;1.77;;;25.90;56.00;;;;;;4978966;28;20208;-79
2022/10/02 13:46:28;;;;;;;3.70;1.47;;;25.90;56.10;;;;;;4987730;28;20214;-79
2022/10/02 13:49:42;;;;;;;3.67;1.57;;;25.90;55.70;;;;;;4984600;28;20734;-79
2022/10/02 13:53:02;;;;;;;3.70;1.40;;;25.90;56.20;;;;;;4993477;28;20234;-79
2022/10/02 13:55:37;;;;;;;5.50;1.30;;;25.90;56.10;;;;;;4982221;28;20214;-79
2022/10/02 13:58:22;;;;;;;3.90;1.40;;;25.90;56.40;;;;;;4988973;28;20663;-79
2022/10/02 14:01:38;;;;;;;7.17;2.10;;;25.90;56.60;;;;;;4987260;28;20195;-79
2022/10/02 14:04:26;;;;;;;8.47;1.70;;;25.90;56.80;;;;;;4984647;28;20221;-78
2022/10/02 14:07:08;;;;;;;4.73;1.50;;;25.90;56.80;;;;;;4994094;28;20213;-78
2022/10/02 14:09:57;;;;;;;4.47;1.57;;;25.90;56.60;;;;;;4987413;28;20221;-79
2022/10/02 14:12:33;;;;;;;3.10;1.40;;;25.90;56.70;;;;;;4974183;28;20289;-78
2022/10/02 14:15:29;;;;;;;4.73;1.20;;;25.90;56.80;;;;;;4992868;28;20213;-81
2022/10/02 14:18:39;;;;;;;3.77;1.50;;;25.80;56.90;;;;;;4985495;28;20218;-78
2022/10/02 14:21:30;;;;;;;7.13;1.40;;;25.80;57.20;;;;;;4988574;28;20283;-79
2022/10/02 14:24:12;;;;;;;6.40;1.93;;;25.80;56.80;;;;;;4996542;28;20233;-78
2022/10/02 14:26:57;;;;;;;4.83;1.60;;;25.70;56.80;;;;;;4991765;28;20212;-79
2022/10/02 14:30:08;;;;;;;4.60;1.60;;;25.70;57.00;;;;;;4984750;28;20244;-79
2022/10/02 14:32:35;;;;;;;5.70;1.67;;;25.70;57.10;;;;;;4984854;28;20642;-79
2022/10/02 14:35:22;;;;;;;4.83;1.40;;;25.70;57.10;;;;;;4988850;28;20206;-80
2022/10/02 14:38:08;;;;;;;6.43;1.43;;;25.60;56.50;;;;;;4992203;28;20287;-80
2022/10/02 14:40:45;;;;;;;4.63;1.53;;;25.50;57.10;;;;;;4989877;28;20217;-79